sensor_id;sensor_type;location;lat;lon;timestamp;pressure;altitude;pressure_sealevel;temperature;humidity
19596;BME280;9945;46.010;8.946;2023-09-07T00:01:32;97796.09;;;23.39;80.47
19596;BME280;9945;46.010;8.946;2023-09-07T00:03:59;97793.78;;;23.43;79.87
19596;BME280;9945;46.010;8.946;2023-09-07T00:06:26;97791.53;;;23.39;79.96
19596;BME280;9945;46.010;8.946;2023-09-07T00:08:52;97794.06;;;23.34;80.64
19596;BME280;9945;46.010;8.946;2023-09-07T00:11:19;97794.25;;;23.33;80.09
19596;BME280;9945;46.010;8.946;2023-09-07T00:13:47;97793.28;;;23.27;80.89
19596;BME280;9945;46.010;8.946;2023-09-07T00:16:15;97801.91;;;23.23;80.30
19596;BME280;9945;46.010;8.946;2023-09-07T00:18:42;97794.56;;;23.18;80.84
19596;BME280;9945;46.010;8.946;2023-09-07T00:21:09;97794.16;;;23.15;82.07
19596;BME280;9945;46.010;8.946;2023-09-07T00:23:36;97786.97;;;23.15;81.73
19596;BME280;9945;46.010;8.946;2023-09-07T00:26:03;97787.38;;;23.19;81.46
19596;BME280;9945;46.010;8.946;2023-09-07T00:28:30;97790.66;;;23.21;81.61
19596;BME280;9945;46.010;8.946;2023-09-07T00:30:58;97787.72;;;23.22;81.72
19596;BME280;9945;46.010;8.946;2023-09-07T00:33:25;97793.31;;;23.14;81.88
19596;BME280;9945;46.010;8.946;2023-09-07T00:35:52;97785.16;;;23.09;82.50
19596;BME280;9945;46.010;8.946;2023-09-07T00:38:19;97796.25;;;23.13;82.59
19596;BME280;9945;46.010;8.946;2023-09-07T00:40:46;97789.28;;;23.05;83.61
19596;BME280;9945;46.010;8.946;2023-09-07T00:43:12;97789.50;;;23.04;83.38
19596;BME280;9945;46.010;8.946;2023-09-07T00:45:40;97788.06;;;23.01;83.70
19596;BME280;9945;46.010;8.946;2023-09-07T00:48:08;97789.75;;;22.95;84.27
19596;BME280;9945;46.010;8.946;2023-09-07T00:50:35;97790.97;;;22.93;84.42
19596;BME280;9945;46.010;8.946;2023-09-07T00:53:03;97795.91;;;22.96;84.52
19596;BME280;9945;46.010;8.946;2023-09-07T00:55:33;97795.47;;;22.99;84.17
19596;BME280;9945;46.010;8.946;2023-09-07T00:58:00;97797.09;;;23.00;83.67
19596;BME280;9945;46.010;8.946;2023-09-07T01:00:28;97788.69;;;23.03;82.83
19596;BME280;9945;46.010;8.946;2023-09-07T01:02:55;97794.63;;;23.05;82.19
19596;BME280;9945;46.010;8.946;2023-09-07T01:05:27;97793.56;;;23.06;82.34
19596;BME280;9945;46.010;8.946;2023-09-07T01:08:00;97791.97;;;23.05;82.27
19596;BME280;9945;46.010;8.946;2023-09-07T01:10:28;97791.75;;;23.00;82.79
19596;BME280;9945;46.010;8.946;2023-09-07T01:12:55;97791.16;;;22.98;82.48
19596;BME280;9945;46.010;8.946;2023-09-07T01:15:22;97790.72;;;23.01;82.82
19596;BME280;9945;46.010;8.946;2023-09-07T01:17:49;97787.44;;;22.99;82.26
19596;BME280;9945;46.010;8.946;2023-09-07T01:20:17;97788.50;;;22.91;82.74
19596;BME280;9945;46.010;8.946;2023-09-07T01:22:46;97786.66;;;22.92;82.10
19596;BME280;9945;46.010;8.946;2023-09-07T01:25:13;97784.41;;;22.89;82.64
19596;BME280;9945;46.010;8.946;2023-09-07T01:27:40;97788.72;;;22.90;82.85
19596;BME280;9945;46.010;8.946;2023-09-07T01:30:08;97786.88;;;22.90;82.74
19596;BME280;9945;46.010;8.946;2023-09-07T01:32:35;97784.81;;;22.92;82.58
19596;BME280;9945;46.010;8.946;2023-09-07T01:35:06;97786.25;;;22.95;82.48
19596;BME280;9945;46.010;8.946;2023-09-07T01:37:36;97784.22;;;22.84;83.46
19596;BME280;9945;46.010;8.946;2023-09-07T01:40:05;97780.75;;;22.83;82.97
19596;BME280;9945;46.010;8.946;2023-09-07T01:42:34;97788.53;;;22.85;83.00
19596;BME280;9945;46.010;8.946;2023-09-07T01:45:00;97783.19;;;22.85;82.90
19596;BME280;9945;46.010;8.946;2023-09-07T01:47:27;97788.13;;;22.81;83.48
19596;BME280;9945;46.010;8.946;2023-09-07T01:49:54;97780.97;;;22.75;83.71
19596;BME280;9945;46.010;8.946;2023-09-07T01:52:21;97789.00;;;22.75;83.83
19596;BME280;9945;46.010;8.946;2023-09-07T01:54:48;97785.66;;;22.80;83.09
19596;BME280;9945;46.010;8.946;2023-09-07T01:57:17;97789.81;;;22.76;84.17
19596;BME280;9945;46.010;8.946;2023-09-07T01:59:44;97782.22;;;22.59;84.29
19596;BME280;9945;46.010;8.946;2023-09-07T02:02:13;97793.75;;;22.53;84.77
19596;BME280;9945;46.010;8.946;2023-09-07T02:04:40;97783.69;;;22.49;84.86
19596;BME280;9945;46.010;8.946;2023-09-07T02:07:11;97788.63;;;22.39;86.28
19596;BME280;9945;46.010;8.946;2023-09-07T02:09:38;97786.22;;;22.24;87.32
19596;BME280;9945;46.010;8.946;2023-09-07T02:12:05;97783.94;;;22.34;86.26
19596;BME280;9945;46.010;8.946;2023-09-07T02:14:34;97796.41;;;22.47;85.19
19596;BME280;9945;46.010;8.946;2023-09-07T02:17:00;97789.22;;;22.47;85.82
19596;BME280;9945;46.010;8.946;2023-09-07T02:19:28;97791.50;;;22.50;85.82
19596;BME280;9945;46.010;8.946;2023-09-07T02:21:55;97795.38;;;22.54;84.91
19596;BME280;9945;46.010;8.946;2023-09-07T02:24:22;97797.06;;;22.42;85.81
19596;BME280;9945;46.010;8.946;2023-09-07T02:26:49;97803.03;;;22.31;86.76
19596;BME280;9945;46.010;8.946;2023-09-07T02:29:16;97803.22;;;22.43;85.46
19596;BME280;9945;46.010;8.946;2023-09-07T02:31:44;97807.94;;;22.54;84.71
19596;BME280;9945;46.010;8.946;2023-09-07T02:34:11;97804.19;;;22.55;85.16
19596;BME280;9945;46.010;8.946;2023-09-07T02:36:38;97809.97;;;22.52;85.04
19596;BME280;9945;46.010;8.946;2023-09-07T02:39:04;97812.22;;;22.55;84.62
19596;BME280;9945;46.010;8.946;2023-09-07T02:41:33;97805.25;;;22.54;84.93
19596;BME280;9945;46.010;8.946;2023-09-07T02:44:01;97807.69;;;22.55;84.98
19596;BME280;9945;46.010;8.946;2023-09-07T02:46:28;97811.81;;;22.51;85.29
19596;BME280;9945;46.010;8.946;2023-09-07T02:48:57;97809.97;;;22.58;84.69
19596;BME280;9945;46.010;8.946;2023-09-07T02:51:24;97800.94;;;22.53;85.06
19596;BME280;9945;46.010;8.946;2023-09-07T02:53:51;97808.94;;;22.53;85.02
19596;BME280;9945;46.010;8.946;2023-09-07T02:56:18;97812.22;;;22.55;84.69
19596;BME280;9945;46.010;8.946;2023-09-07T02:58:45;97811.38;;;22.54;85.17
19596;BME280;9945;46.010;8.946;2023-09-07T03:01:12;97813.88;;;22.49;85.56
19596;BME280;9945;46.010;8.946;2023-09-07T03:03:38;97805.47;;;22.39;85.97
19596;BME280;9945;46.010;8.946;2023-09-07T03:06:10;97807.94;;;22.41;85.98
19596;BME280;9945;46.010;8.946;2023-09-07T03:08:38;97811.22;;;22.43;85.79
19596;BME280;9945;46.010;8.946;2023-09-07T03:11:06;97806.72;;;22.43;85.77
19596;BME280;9945;46.010;8.946;2023-09-07T03:13:35;97807.72;;;22.42;85.41
19596;BME280;9945;46.010;8.946;2023-09-07T03:16:03;97812.88;;;22.44;85.59
19596;BME280;9945;46.010;8.946;2023-09-07T03:18:30;97806.50;;;22.45;84.84
19596;BME280;9945;46.010;8.946;2023-09-07T03:20:59;97806.72;;;22.43;85.52
19596;BME280;9945;46.010;8.946;2023-09-07T03:23:28;97806.50;;;22.38;88.11
19596;BME280;9945;46.010;8.946;2023-09-07T03:25:56;97812.66;;;22.39;87.12
19596;BME280;9945;46.010;8.946;2023-09-07T03:28:23;97815.31;;;22.39;86.64
19596;BME280;9945;46.010;8.946;2023-09-07T03:30:50;97808.34;;;22.38;86.98
19596;BME280;9945;46.010;8.946;2023-09-07T03:33:17;97812.06;;;22.37;86.17
19596;BME280;9945;46.010;8.946;2023-09-07T03:35:44;97811.00;;;22.38;86.03
19596;BME280;9945;46.010;8.946;2023-09-07T03:38:11;97813.91;;;22.36;86.28
19596;BME280;9945;46.010;8.946;2023-09-07T03:40:39;97820.69;;;22.32;86.21
19596;BME280;9945;46.010;8.946;2023-09-07T03:43:06;97821.94;;;22.16;87.80
19596;BME280;9945;46.010;8.946;2023-09-07T03:45:33;97811.44;;;22.21;87.48
19596;BME280;9945;46.010;8.946;2023-09-07T03:48:00;97812.69;;;22.19;87.90
19596;BME280;9945;46.010;8.946;2023-09-07T03:50:27;97820.28;;;22.22;87.61
19596;BME280;9945;46.010;8.946;2023-09-07T03:52:54;97822.13;;;22.21;87.52
19596;BME280;9945;46.010;8.946;2023-09-07T03:55:21;97809.59;;;22.22;87.23
19596;BME280;9945;46.010;8.946;2023-09-07T03:57:49;97816.59;;;22.23;86.84
19596;BME280;9945;46.010;8.946;2023-09-07T04:00:17;97810.63;;;22.21;86.44
19596;BME280;9945;46.010;8.946;2023-09-07T04:02:44;97811.69;;;22.20;86.59
19596;BME280;9945;46.010;8.946;2023-09-07T04:05:11;97807.78;;;22.09;87.57
19596;BME280;9945;46.010;8.946;2023-09-07T04:07:38;97812.47;;;22.14;86.66
19596;BME280;9945;46.010;8.946;2023-09-07T04:10:05;97807.97;;;22.14;87.39
19596;BME280;9945;46.010;8.946;2023-09-07T04:12:32;97810.44;;;22.16;86.81
19596;BME280;9945;46.010;8.946;2023-09-07T04:15:01;97803.25;;;22.16;87.43
19596;BME280;9945;46.010;8.946;2023-09-07T04:17:31;97811.88;;;22.18;86.65
19596;BME280;9945;46.010;8.946;2023-09-07T04:20:06;97811.69;;;22.20;86.74
19596;BME280;9945;46.010;8.946;2023-09-07T04:22:34;97809.22;;;22.18;86.86
19596;BME280;9945;46.010;8.946;2023-09-07T04:25:01;97807.16;;;22.14;86.58
19596;BME280;9945;46.010;8.946;2023-09-07T04:27:27;97798.53;;;22.12;86.44
19596;BME280;9945;46.010;8.946;2023-09-07T04:29:54;97807.56;;;22.11;86.76
19596;BME280;9945;46.010;8.946;2023-09-07T04:32:23;97802.03;;;22.06;86.62
19596;BME280;9945;46.010;8.946;2023-09-07T04:34:53;97803.06;;;22.11;86.06
19596;BME280;9945;46.010;8.946;2023-09-07T04:37:20;97805.94;;;22.10;86.81
19596;BME280;9945;46.010;8.946;2023-09-07T04:39:50;97803.47;;;22.08;87.14
19596;BME280;9945;46.010;8.946;2023-09-07T04:42:17;97800.81;;;22.02;87.38
19596;BME280;9945;46.010;8.946;2023-09-07T04:44:44;97805.50;;;22.06;86.97
19596;BME280;9945;46.010;8.946;2023-09-07T04:47:11;97810.84;;;22.06;87.04
19596;BME280;9945;46.010;8.946;2023-09-07T04:49:39;97801.63;;;22.02;87.72
19596;BME280;9945;46.010;8.946;2023-09-07T04:52:05;97805.13;;;22.03;87.75
19596;BME280;9945;46.010;8.946;2023-09-07T04:54:34;97806.09;;;21.95;88.77
19596;BME280;9945;46.010;8.946;2023-09-07T04:57:01;97814.31;;;21.94;88.41
19596;BME280;9945;46.010;8.946;2023-09-07T04:59:28;97804.44;;;21.87;90.05
19596;BME280;9945;46.010;8.946;2023-09-07T05:01:58;97806.91;;;21.89;89.67
19596;BME280;9945;46.010;8.946;2023-09-07T05:04:25;97807.94;;;21.81;90.85
19596;BME280;9945;46.010;8.946;2023-09-07T05:06:53;97807.75;;;21.83;90.78
19596;BME280;9945;46.010;8.946;2023-09-07T05:09:20;97804.66;;;21.79;91.40
19596;BME280;9945;46.010;8.946;2023-09-07T05:11:46;97811.63;;;21.87;90.65
19596;BME280;9945;46.010;8.946;2023-09-07T05:14:13;97810.19;;;21.78;91.88
19596;BME280;9945;46.010;8.946;2023-09-07T05:16:42;97810.81;;;21.80;91.54
19596;BME280;9945;46.010;8.946;2023-09-07T05:19:09;97805.28;;;21.75;91.69
19596;BME280;9945;46.010;8.946;2023-09-07T05:21:36;97819.00;;;21.72;91.52
19596;BME280;9945;46.010;8.946;2023-09-07T05:24:04;97817.59;;;21.76;91.31
19596;BME280;9945;46.010;8.946;2023-09-07T05:26:32;97820.66;;;21.60;93.27
19596;BME280;9945;46.010;8.946;2023-09-07T05:28:58;97818.59;;;21.68;91.91
19596;BME280;9945;46.010;8.946;2023-09-07T05:31:26;97823.50;;;21.71;91.72
19596;BME280;9945;46.010;8.946;2023-09-07T05:33:53;97817.16;;;21.72;91.36
19596;BME280;9945;46.010;8.946;2023-09-07T05:36:20;97823.50;;;21.58;92.97
19596;BME280;9945;46.010;8.946;2023-09-07T05:38:47;97826.38;;;21.70;92.87
19596;BME280;9945;46.010;8.946;2023-09-07T05:41:15;97828.84;;;21.78;92.02
19596;BME280;9945;46.010;8.946;2023-09-07T05:43:42;97836.44;;;21.81;91.33
19596;BME280;9945;46.010;8.946;2023-09-07T05:46:09;97839.13;;;21.81;92.47
19596;BME280;9945;46.010;8.946;2023-09-07T05:48:35;97835.63;;;21.80;92.19
19596;BME280;9945;46.010;8.946;2023-09-07T05:51:03;97833.19;;;21.92;91.05
19596;BME280;9945;46.010;8.946;2023-09-07T05:53:30;97833.38;;;21.90;91.16
19596;BME280;9945;46.010;8.946;2023-09-07T05:55:57;97832.56;;;21.90;92.45
19596;BME280;9945;46.010;8.946;2023-09-07T05:58:25;97832.56;;;21.97;92.94
19596;BME280;9945;46.010;8.946;2023-09-07T06:00:52;97830.16;;;22.02;93.19
19596;BME280;9945;46.010;8.946;2023-09-07T06:03:19;97828.47;;;21.94;95.00
19596;BME280;9945;46.010;8.946;2023-09-07T06:05:46;97837.06;;;21.89;95.69
19596;BME280;9945;46.010;8.946;2023-09-07T06:08:13;97831.75;;;21.83;97.42
19596;BME280;9945;46.010;8.946;2023-09-07T06:10:40;97835.03;;;21.92;96.34
19596;BME280;9945;46.010;8.946;2023-09-07T06:13:07;97834.66;;;22.01;97.17
19596;BME280;9945;46.010;8.946;2023-09-07T06:15:35;97823.38;;;22.06;95.38
19596;BME280;9945;46.010;8.946;2023-09-07T06:18:02;97828.28;;;22.22;93.35
19596;BME280;9945;46.010;8.946;2023-09-07T06:20:29;97827.47;;;22.35;90.37
19596;BME280;9945;46.010;8.946;2023-09-07T06:22:56;97831.56;;;22.31;90.56
19596;BME280;9945;46.010;8.946;2023-09-07T06:25:23;97833.22;;;22.25;91.22
19596;BME280;9945;46.010;8.946;2023-09-07T06:27:50;97832.59;;;22.36;89.27
19596;BME280;9945;46.010;8.946;2023-09-07T06:30:17;97831.53;;;22.37;91.02
19596;BME280;9945;46.010;8.946;2023-09-07T06:32:46;97834.00;;;22.52;88.48
19596;BME280;9945;46.010;8.946;2023-09-07T06:35:14;97830.69;;;22.56;88.51
19596;BME280;9945;46.010;8.946;2023-09-07T06:37:41;97834.63;;;22.54;88.65
19596;BME280;9945;46.010;8.946;2023-09-07T06:40:09;97830.47;;;22.71;87.36
19596;BME280;9945;46.010;8.946;2023-09-07T06:42:36;97832.34;;;22.77;87.52
19596;BME280;9945;46.010;8.946;2023-09-07T06:45:04;97832.50;;;22.82;85.46
19596;BME280;9945;46.010;8.946;2023-09-07T06:47:32;97833.53;;;22.88;85.62
19596;BME280;9945;46.010;8.946;2023-09-07T06:50:02;97833.66;;;23.13;83.43
19596;BME280;9945;46.010;8.946;2023-09-07T06:52:28;97836.09;;;23.14;81.91
19596;BME280;9945;46.010;8.946;2023-09-07T06:54:55;97830.94;;;23.19;81.53
19596;BME280;9945;46.010;8.946;2023-09-07T06:57:23;97831.31;;;23.29;81.31
19596;BME280;9945;46.010;8.946;2023-09-07T06:59:49;97829.16;;;23.45;78.20
19596;BME280;9945;46.010;8.946;2023-09-07T07:02:16;97830.28;;;23.24;77.42
19596;BME280;9945;46.010;8.946;2023-09-07T07:04:43;97832.44;;;23.47;77.29
19596;BME280;9945;46.010;8.946;2023-09-07T07:07:13;97831.22;;;23.49;78.19
19596;BME280;9945;46.010;8.946;2023-09-07T07:09:40;97835.47;;;23.57;77.59
19596;BME280;9945;46.010;8.946;2023-09-07T07:12:07;97836.56;;;23.49;75.95
19596;BME280;9945;46.010;8.946;2023-09-07T07:14:34;97841.38;;;23.72;75.64
19596;BME280;9945;46.010;8.946;2023-09-07T07:17:01;97835.00;;;23.73;77.83
19596;BME280;9945;46.010;8.946;2023-09-07T07:19:30;97836.41;;;24.00;73.57
19596;BME280;9945;46.010;8.946;2023-09-07T07:21:57;97837.53;;;24.18;77.01
19596;BME280;9945;46.010;8.946;2023-09-07T07:24:25;97836.13;;;24.40;75.23
19596;BME280;9945;46.010;8.946;2023-09-07T07:26:52;97836.81;;;24.54;75.94
19596;BME280;9945;46.010;8.946;2023-09-07T07:29:19;97839.59;;;24.65;73.97
19596;BME280;9945;46.010;8.946;2023-09-07T07:31:46;97839.13;;;24.68;75.74
19596;BME280;9945;46.010;8.946;2023-09-07T07:34:13;97837.88;;;24.71;74.41
19596;BME280;9945;46.010;8.946;2023-09-07T07:36:40;97834.16;;;24.72;73.78
19596;BME280;9945;46.010;8.946;2023-09-07T07:39:07;97839.44;;;24.78;71.77
19596;BME280;9945;46.010;8.946;2023-09-07T07:41:35;97837.22;;;24.57;72.07
19596;BME280;9945;46.010;8.946;2023-09-07T07:44:03;97834.28;;;24.59;72.22
19596;BME280;9945;46.010;8.946;2023-09-07T07:46:30;97836.22;;;24.70;72.61
19596;BME280;9945;46.010;8.946;2023-09-07T07:48:57;97840.78;;;24.87;70.63
19596;BME280;9945;46.010;8.946;2023-09-07T07:51:24;97837.78;;;24.77;69.85
19596;BME280;9945;46.010;8.946;2023-09-07T07:53:53;97832.97;;;24.86;72.04
19596;BME280;9945;46.010;8.946;2023-09-07T07:56:21;97830.84;;;24.95;73.59
19596;BME280;9945;46.010;8.946;2023-09-07T07:58:49;97827.00;;;24.84;74.41
19596;BME280;9945;46.010;8.946;2023-09-07T08:01:17;97829.09;;;24.82;72.88
19596;BME280;9945;46.010;8.946;2023-09-07T08:03:46;97825.16;;;24.84;72.42
19596;BME280;9945;46.010;8.946;2023-09-07T08:06:12;97826.69;;;24.99;71.57
19596;BME280;9945;46.010;8.946;2023-09-07T08:08:39;97834.53;;;25.12;71.79
19596;BME280;9945;46.010;8.946;2023-09-07T08:11:06;97829.38;;;25.29;70.71
19596;BME280;9945;46.010;8.946;2023-09-07T08:13:35;97827.94;;;25.44;70.23
19596;BME280;9945;46.010;8.946;2023-09-07T08:16:04;97828.13;;;25.31;70.89
19596;BME280;9945;46.010;8.946;2023-09-07T08:18:33;97828.94;;;24.77;74.62
19596;BME280;9945;46.010;8.946;2023-09-07T08:21:00;97830.84;;;24.95;74.03
19596;BME280;9945;46.010;8.946;2023-09-07T08:23:28;97827.38;;;24.87;73.77
19596;BME280;9945;46.010;8.946;2023-09-07T08:25:54;97835.22;;;25.07;73.88
19596;BME280;9945;46.010;8.946;2023-09-07T08:28:22;97835.97;;;24.96;72.93
19596;BME280;9945;46.010;8.946;2023-09-07T08:30:49;97837.53;;;25.04;72.47
19596;BME280;9945;46.010;8.946;2023-09-07T08:33:20;97827.72;;;24.98;71.80
19596;BME280;9945;46.010;8.946;2023-09-07T08:35:52;97831.84;;;25.30;71.76
19596;BME280;9945;46.010;8.946;2023-09-07T08:38:20;97831.91;;;25.42;70.49
19596;BME280;9945;46.010;8.946;2023-09-07T08:40:52;97826.44;;;25.67;70.95
19596;BME280;9945;46.010;8.946;2023-09-07T08:43:21;97835.81;;;25.87;69.26
19596;BME280;9945;46.010;8.946;2023-09-07T08:45:51;97830.31;;;25.82;68.27
19596;BME280;9945;46.010;8.946;2023-09-07T08:48:27;97837.09;;;25.96;68.21
19596;BME280;9945;46.010;8.946;2023-09-07T08:50:56;97829.69;;;26.10;67.68
19596;BME280;9945;46.010;8.946;2023-09-07T08:53:26;97825.84;;;26.29;67.58
19596;BME280;9945;46.010;8.946;2023-09-07T08:55:53;97830.06;;;26.37;64.81
19596;BME280;9945;46.010;8.946;2023-09-07T08:58:21;97835.31;;;26.32;65.02
19596;BME280;9945;46.010;8.946;2023-09-07T09:00:47;97836.41;;;25.89;65.68
19596;BME280;9945;46.010;8.946;2023-09-07T09:03:15;97831.44;;;26.16;65.18
19596;BME280;9945;46.010;8.946;2023-09-07T09:05:43;97835.22;;;25.55;68.35
19596;BME280;9945;46.010;8.946;2023-09-07T09:08:11;97825.00;;;25.64;68.50
19596;BME280;9945;46.010;8.946;2023-09-07T09:10:41;97818.16;;;25.80;64.90
19596;BME280;9945;46.010;8.946;2023-09-07T09:13:14;97817.81;;;25.88;66.05
19596;BME280;9945;46.010;8.946;2023-09-07T09:15:41;97822.91;;;26.08;65.88
19596;BME280;9945;46.010;8.946;2023-09-07T09:18:11;97824.75;;;26.07;66.20
19596;BME280;9945;46.010;8.946;2023-09-07T09:20:39;97818.69;;;26.00;66.54
19596;BME280;9945;46.010;8.946;2023-09-07T09:23:07;97821.66;;;25.69;67.07
19596;BME280;9945;46.010;8.946;2023-09-07T09:25:34;97810.66;;;25.70;66.33
19596;BME280;9945;46.010;8.946;2023-09-07T09:28:01;97809.97;;;25.63;65.14
19596;BME280;9945;46.010;8.946;2023-09-07T09:30:30;97812.69;;;25.75;64.52
19596;BME280;9945;46.010;8.946;2023-09-07T09:32:58;97805.84;;;25.60;64.69
19596;BME280;9945;46.010;8.946;2023-09-07T09:35:26;97809.78;;;25.88;66.31
19596;BME280;9945;46.010;8.946;2023-09-07T09:37:53;97810.28;;;26.08;66.32
19596;BME280;9945;46.010;8.946;2023-09-07T09:40:21;97810.56;;;26.53;65.70
19596;BME280;9945;46.010;8.946;2023-09-07T09:42:50;97804.03;;;26.61;62.73
19596;BME280;9945;46.010;8.946;2023-09-07T09:45:19;97803.00;;;26.90;62.14
19596;BME280;9945;46.010;8.946;2023-09-07T09:47:47;97799.75;;;26.88;59.96
19596;BME280;9945;46.010;8.946;2023-09-07T09:50:18;97798.34;;;26.97;57.07
19596;BME280;9945;46.010;8.946;2023-09-07T09:52:46;97796.50;;;27.26;57.09
19596;BME280;9945;46.010;8.946;2023-09-07T09:55:15;97798.19;;;27.44;55.51
19596;BME280;9945;46.010;8.946;2023-09-07T09:57:44;97798.03;;;27.50;55.57
19596;BME280;9945;46.010;8.946;2023-09-07T10:00:12;97788.09;;;27.79;55.34
19596;BME280;9945;46.010;8.946;2023-09-07T10:02:57;97788.25;;;27.90;54.61
19596;BME280;9945;46.010;8.946;2023-09-07T10:05:26;97782.78;;;27.84;54.29
19596;BME280;9945;46.010;8.946;2023-09-07T10:07:59;97780.50;;;28.10;54.04
19596;BME280;9945;46.010;8.946;2023-09-07T10:10:33;97777.63;;;28.00;54.27
19596;BME280;9945;46.010;8.946;2023-09-07T10:13:02;97774.63;;;28.30;54.82
19596;BME280;9945;46.010;8.946;2023-09-07T10:15:30;97775.31;;;28.42;54.23
19596;BME280;9945;46.010;8.946;2023-09-07T10:18:09;97777.50;;;28.61;52.52
19596;BME280;9945;46.010;8.946;2023-09-07T10:20:54;97774.16;;;28.93;52.35
19596;BME280;9945;46.010;8.946;2023-09-07T10:23:21;97778.03;;;29.02;52.24
19596;BME280;9945;46.010;8.946;2023-09-07T10:25:50;97768.97;;;29.62;49.28
19596;BME280;9945;46.010;8.946;2023-09-07T10:28:23;97770.44;;;30.91;46.34
19596;BME280;9945;46.010;8.946;2023-09-07T10:31:00;97767.72;;;33.24;40.71
19596;BME280;9945;46.010;8.946;2023-09-07T10:33:29;97778.16;;;35.00;38.02
19596;BME280;9945;46.010;8.946;2023-09-07T10:35:56;97775.19;;;37.15;34.09
19596;BME280;9945;46.010;8.946;2023-09-07T10:38:23;97770.41;;;40.28;29.47
19596;BME280;9945;46.010;8.946;2023-09-07T10:40:55;97764.38;;;42.48;26.22
19596;BME280;9945;46.010;8.946;2023-09-07T10:43:25;97769.41;;;43.43;25.06
19596;BME280;9945;46.010;8.946;2023-09-07T10:45:53;97775.09;;;43.74;24.07
19596;BME280;9945;46.010;8.946;2023-09-07T10:48:21;97768.63;;;44.54;22.96
19596;BME280;9945;46.010;8.946;2023-09-07T10:50:48;97771.66;;;44.80;23.75
19596;BME280;9945;46.010;8.946;2023-09-07T10:53:24;97762.56;;;44.80;22.98
19596;BME280;9945;46.010;8.946;2023-09-07T10:55:53;97757.44;;;45.13;22.65
19596;BME280;9945;46.010;8.946;2023-09-07T10:58:29;97760.25;;;44.66;22.71
19596;BME280;9945;46.010;8.946;2023-09-07T11:00:57;97749.47;;;41.62;25.32
19596;BME280;9945;46.010;8.946;2023-09-07T11:03:24;97745.31;;;42.67;24.81
19596;BME280;9945;46.010;8.946;2023-09-07T11:05:54;97743.16;;;43.21;24.07
19596;BME280;9945;46.010;8.946;2023-09-07T11:08:23;97746.84;;;43.53;23.76
19596;BME280;9945;46.010;8.946;2023-09-07T11:10:51;97737.84;;;43.68;23.21
19596;BME280;9945;46.010;8.946;2023-09-07T11:13:18;97732.72;;;42.09;24.47
19596;BME280;9945;46.010;8.946;2023-09-07T11:15:46;97721.72;;;41.05;26.06
19596;BME280;9945;46.010;8.946;2023-09-07T11:18:19;97725.72;;;39.85;27.04
19596;BME280;9945;46.010;8.946;2023-09-07T11:20:47;97718.53;;;40.65;26.21
19596;BME280;9945;46.010;8.946;2023-09-07T11:23:15;97720.81;;;41.63;25.31
19596;BME280;9945;46.010;8.946;2023-09-07T11:25:42;97709.88;;;40.83;26.40
19596;BME280;9945;46.010;8.946;2023-09-07T11:28:09;97714.41;;;39.95;27.49
19596;BME280;9945;46.010;8.946;2023-09-07T11:30:37;97704.31;;;38.70;28.33
19596;BME280;9945;46.010;8.946;2023-09-07T11:33:07;97702.41;;;37.05;30.56
19596;BME280;9945;46.010;8.946;2023-09-07T11:35:34;97704.94;;;37.74;30.47
19596;BME280;9945;46.010;8.946;2023-09-07T11:38:03;97701.25;;;38.32;29.72
19596;BME280;9945;46.010;8.946;2023-09-07T11:40:32;97694.66;;;38.02;29.54
19596;BME280;9945;46.010;8.946;2023-09-07T11:42:59;97701.47;;;37.24;30.39
19596;BME280;9945;46.010;8.946;2023-09-07T11:45:26;97691.50;;;36.92;30.92
19596;BME280;9945;46.010;8.946;2023-09-07T11:47:53;97686.22;;;37.09;30.62
19596;BME280;9945;46.010;8.946;2023-09-07T11:50:23;97693.22;;;36.19;32.15
19596;BME280;9945;46.010;8.946;2023-09-07T11:52:50;97690.78;;;34.78;33.93
19596;BME280;9945;46.010;8.946;2023-09-07T11:55:17;97688.97;;;34.44;35.74
19596;BME280;9945;46.010;8.946;2023-09-07T11:57:44;97689.78;;;34.69;34.30
19596;BME280;9945;46.010;8.946;2023-09-07T12:00:12;97690.25;;;35.13;34.31
19596;BME280;9945;46.010;8.946;2023-09-07T12:02:40;97681.88;;;34.91;34.91
19596;BME280;9945;46.010;8.946;2023-09-07T12:05:07;97679.81;;;34.83;34.71
19596;BME280;9945;46.010;8.946;2023-09-07T12:07:36;97677.94;;;34.54;35.02
19596;BME280;9945;46.010;8.946;2023-09-07T12:10:04;97672.81;;;34.77;35.56
19596;BME280;9945;46.010;8.946;2023-09-07T12:12:33;97666.88;;;35.12;34.59
19596;BME280;9945;46.010;8.946;2023-09-07T12:15:00;97672.31;;;33.64;36.86
19596;BME280;9945;46.010;8.946;2023-09-07T12:17:29;97664.59;;;33.82;36.00
19596;BME280;9945;46.010;8.946;2023-09-07T12:19:56;97668.47;;;33.36;37.94
19596;BME280;9945;46.010;8.946;2023-09-07T12:22:23;97655.00;;;33.55;38.30
19596;BME280;9945;46.010;8.946;2023-09-07T12:24:51;97646.22;;;33.68;37.91
19596;BME280;9945;46.010;8.946;2023-09-07T12:27:18;97651.44;;;34.17;36.85
19596;BME280;9945;46.010;8.946;2023-09-07T12:29:45;97651.94;;;33.67;37.67
19596;BME280;9945;46.010;8.946;2023-09-07T12:32:13;97647.72;;;34.08;36.81
19596;BME280;9945;46.010;8.946;2023-09-07T12:34:39;97644.59;;;34.20;37.21
19596;BME280;9945;46.010;8.946;2023-09-07T12:37:06;97646.00;;;34.17;36.09
19596;BME280;9945;46.010;8.946;2023-09-07T12:39:33;97642.69;;;33.68;37.65
19596;BME280;9945;46.010;8.946;2023-09-07T12:42:01;97642.22;;;34.13;37.75
19596;BME280;9945;46.010;8.946;2023-09-07T12:44:28;97640.69;;;33.44;36.75
19596;BME280;9945;46.010;8.946;2023-09-07T12:46:55;97636.88;;;33.46;38.34
19596;BME280;9945;46.010;8.946;2023-09-07T12:49:22;97639.88;;;33.78;37.13
19596;BME280;9945;46.010;8.946;2023-09-07T12:51:52;97635.06;;;33.36;37.40
19596;BME280;9945;46.010;8.946;2023-09-07T12:54:18;97641.84;;;32.94;38.42
19596;BME280;9945;46.010;8.946;2023-09-07T12:56:45;97636.59;;;32.64;39.64
19596;BME280;9945;46.010;8.946;2023-09-07T12:59:14;97629.03;;;32.51;40.32
19596;BME280;9945;46.010;8.946;2023-09-07T13:01:40;97624.13;;;32.63;40.56
19596;BME280;9945;46.010;8.946;2023-09-07T13:04:07;97623.66;;;33.00;39.89
19596;BME280;9945;46.010;8.946;2023-09-07T13:06:37;97621.13;;;32.64;40.31
19596;BME280;9945;46.010;8.946;2023-09-07T13:09:04;97614.28;;;32.82;38.98
19596;BME280;9945;46.010;8.946;2023-09-07T13:11:31;97614.66;;;32.55;39.11
19596;BME280;9945;46.010;8.946;2023-09-07T13:13:58;97613.53;;;32.66;40.36